sensor_id;sensor_type;location;lat;lon;timestamp;temperature;humidity
2022;DHT22;1015;49.756;6.994;2022-10-31T00:00:14;8.50;99.90
2022;DHT22;1015;49.756;6.994;2022-10-31T00:02:41;8.50;99.90
2022;DHT22;1015;49.756;6.994;2022-10-31T00:05:10;8.60;99.90
2022;DHT22;1015;49.756;6.994;2022-10-31T00:07:37;8.30;99.90
2022;DHT22;1015;49.756;6.994;2022-10-31T00:10:05;8.30;99.90
2022;DHT22;1015;49.756;6.994;2022-10-31T00:12:32;8.20;99.90
2022;DHT22;1015;49.756;6.994;2022-10-31T00:14:59;8.20;99.90
2022;DHT22;1015;49.756;6.994;2022-10-31T00:17:26;8.30;99.90
2022;DHT22;1015;49.756;6.994;2022-10-31T00:19:53;8.10;99.90
2022;DHT22;1015;49.756;6.994;2022-10-31T00:22:21;8.20;99.90
2022;DHT22;1015;49.756;6.994;2022-10-31T00:24:48;8.00;99.90
2022;DHT22;1015;49.756;6.994;2022-10-31T00:27:15;8.10;99.90
2022;DHT22;1015;49.756;6.994;2022-10-31T00:29:42;8.20;99.90
2022;DHT22;1015;49.756;6.994;2022-10-31T00:32:09;8.30;99.90
2022;DHT22;1015;49.756;6.994;2022-10-31T00:34:36;8.10;99.90
2022;DHT22;1015;49.756;6.994;2022-10-31T00:37:03;7.90;99.90
2022;DHT22;1015;49.756;6.994;2022-10-31T00:39:31;8.00;99.90
2022;DHT22;1015;49.756;6.994;2022-10-31T00:41:58;8.20;99.90
2022;DHT22;1015;49.756;6.994;2022-10-31T00:44:25;8.40;99.90
2022;DHT22;1015;49.756;6.994;2022-10-31T00:46:52;8.50;99.90
2022;DHT22;1015;49.756;6.994;2022-10-31T00:49:19;8.20;99.90
2022;DHT22;1015;49.756;6.994;2022-10-31T00:51:46;8.10;99.90
2022;DHT22;1015;49.756;6.994;2022-10-31T00:54:13;8.20;99.90
2022;DHT22;1015;49.756;6.994;2022-10-31T00:56:41;8.10;99.90
2022;DHT22;1015;49.756;6.994;2022-10-31T00:59:08;8.00;99.90
2022;DHT22;1015;49.756;6.994;2022-10-31T01:01:35;8.20;99.90
2022;DHT22;1015;49.756;6.994;2022-10-31T01:04:02;8.40;99.90
2022;DHT22;1015;49.756;6.994;2022-10-31T01:06:29;8.40;99.90
2022;DHT22;1015;49.756;6.994;2022-10-31T01:08:56;8.40;99.90
2022;DHT22;1015;49.756;6.994;2022-10-31T01:11:24;8.60;99.90
2022;DHT22;1015;49.756;6.994;2022-10-31T01:13:53;8.50;99.90
2022;DHT22;1015;49.756;6.994;2022-10-31T01:16:23;8.50;99.90
2022;DHT22;1015;49.756;6.994;2022-10-31T01:18:50;8.70;99.90
2022;DHT22;1015;49.756;6.994;2022-10-31T01:21:19;8.70;99.90
2022;DHT22;1015;49.756;6.994;2022-10-31T01:23:47;8.80;99.90
2022;DHT22;1015;49.756;6.994;2022-10-31T01:26:15;8.80;99.90
2022;DHT22;1015;49.756;6.994;2022-10-31T01:28:48;8.70;99.90
2022;DHT22;1015;49.756;6.994;2022-10-31T01:31:18;8.70;99.90
2022;DHT22;1015;49.756;6.994;2022-10-31T01:33:45;8.80;99.90
2022;DHT22;1015;49.756;6.994;2022-10-31T01:36:14;8.80;99.90
2022;DHT22;1015;49.756;6.994;2022-10-31T01:38:42;8.90;99.90
2022;DHT22;1015;49.756;6.994;2022-10-31T01:41:13;8.80;99.90
2022;DHT22;1015;49.756;6.994;2022-10-31T01:43:43;8.70;99.90
2022;DHT22;1015;49.756;6.994;2022-10-31T01:46:10;8.80;99.90
2022;DHT22;1015;49.756;6.994;2022-10-31T01:48:40;8.90;99.90
2022;DHT22;1015;49.756;6.994;2022-10-31T01:51:08;9.00;99.90
2022;DHT22;1015;49.756;6.994;2022-10-31T01:53:39;9.10;99.90
2022;DHT22;1015;49.756;6.994;2022-10-31T01:56:06;9.20;99.90
2022;DHT22;1015;49.756;6.994;2022-10-31T01:58:34;9.60;99.90
2022;DHT22;1015;49.756;6.994;2022-10-31T02:01:01;9.60;99.90
2022;DHT22;1015;49.756;6.994;2022-10-31T02:03:30;9.70;99.90
2022;DHT22;1015;49.756;6.994;2022-10-31T02:05:59;9.50;99.90
2022;DHT22;1015;49.756;6.994;2022-10-31T02:08:28;9.60;99.90
2022;DHT22;1015;49.756;6.994;2022-10-31T02:10:56;9.50;99.90
2022;DHT22;1015;49.756;6.994;2022-10-31T02:13:25;9.40;99.90
2022;DHT22;1015;49.756;6.994;2022-10-31T02:15:54;9.30;99.90
2022;DHT22;1015;49.756;6.994;2022-10-31T02:18:26;9.20;99.90
2022;DHT22;1015;49.756;6.994;2022-10-31T02:21:01;9.10;99.90
2022;DHT22;1015;49.756;6.994;2022-10-31T02:24:00;9.00;99.90
2022;DHT22;1015;49.756;6.994;2022-10-31T02:26:45;8.90;99.90
2022;DHT22;1015;49.756;6.994;2022-10-31T02:29:38;8.90;99.90
2022;DHT22;1015;49.756;6.994;2022-10-31T02:32:13;8.90;99.90
2022;DHT22;1015;49.756;6.994;2022-10-31T02:34:48;8.80;99.90
2022;DHT22;1015;49.756;6.994;2022-10-31T02:37:24;8.90;99.90
2022;DHT22;1015;49.756;6.994;2022-10-31T02:39:55;8.80;99.90
2022;DHT22;1015;49.756;6.994;2022-10-31T02:42:26;8.80;99.90
2022;DHT22;1015;49.756;6.994;2022-10-31T02:45:00;8.90;99.90
2022;DHT22;1015;49.756;6.994;2022-10-31T02:47:34;9.00;99.90
2022;DHT22;1015;49.756;6.994;2022-10-31T02:50:07;8.90;99.90
2022;DHT22;1015;49.756;6.994;2022-10-31T02:52:36;8.90;99.90
2022;DHT22;1015;49.756;6.994;2022-10-31T02:55:11;9.00;99.90
2022;DHT22;1015;49.756;6.994;2022-10-31T02:57:40;9.00;99.90
2022;DHT22;1015;49.756;6.994;2022-10-31T03:00:09;9.00;99.90
2022;DHT22;1015;49.756;6.994;2022-10-31T03:02:50;9.00;99.90
2022;DHT22;1015;49.756;6.994;2022-10-31T03:05:36;9.00;99.90
2022;DHT22;1015;49.756;6.994;2022-10-31T03:08:13;8.90;99.90
2022;DHT22;1015;49.756;6.994;2022-10-31T03:10:44;8.90;99.90
2022;DHT22;1015;49.756;6.994;2022-10-31T03:13:22;8.80;99.90
2022;DHT22;1015;49.756;6.994;2022-10-31T03:15:54;8.90;99.90
2022;DHT22;1015;49.756;6.994;2022-10-31T03:18:29;8.90;99.90
2022;DHT22;1015;49.756;6.994;2022-10-31T03:21:01;8.90;99.90
2022;DHT22;1015;49.756;6.994;2022-10-31T03:23:31;8.90;99.90
2022;DHT22;1015;49.756;6.994;2022-10-31T03:26:01;9.00;99.90
2022;DHT22;1015;49.756;6.994;2022-10-31T03:28:33;9.00;99.90
2022;DHT22;1015;49.756;6.994;2022-10-31T03:31:03;9.20;99.90
2022;DHT22;1015;49.756;6.994;2022-10-31T03:33:35;9.10;99.90
2022;DHT22;1015;49.756;6.994;2022-10-31T03:36:05;9.00;99.90
2022;DHT22;1015;49.756;6.994;2022-10-31T03:38:35;9.00;99.90
2022;DHT22;1015;49.756;6.994;2022-10-31T03:41:05;9.00;99.90
2022;DHT22;1015;49.756;6.994;2022-10-31T03:43:37;9.00;99.90
2022;DHT22;1015;49.756;6.994;2022-10-31T03:46:06;8.90;99.90
2022;DHT22;1015;49.756;6.994;2022-10-31T03:48:34;9.00;99.90
2022;DHT22;1015;49.756;6.994;2022-10-31T03:51:07;9.20;99.90
2022;DHT22;1015;49.756;6.994;2022-10-31T03:53:41;9.30;99.90
2022;DHT22;1015;49.756;6.994;2022-10-31T03:56:16;9.20;99.90
2022;DHT22;1015;49.756;6.994;2022-10-31T03:58:47;9.40;99.90
2022;DHT22;1015;49.756;6.994;2022-10-31T04:01:17;9.60;99.90
2022;DHT22;1015;49.756;6.994;2022-10-31T04:03:46;9.50;99.90
2022;DHT22;1015;49.756;6.994;2022-10-31T04:06:15;9.40;99.90
2022;DHT22;1015;49.756;6.994;2022-10-31T04:08:48;9.40;99.90
2022;DHT22;1015;49.756;6.994;2022-10-31T04:11:17;9.50;99.90
2022;DHT22;1015;49.756;6.994;2022-10-31T04:13:46;9.30;99.90
2022;DHT22;1015;49.756;6.994;2022-10-31T04:16:14;9.20;99.90
2022;DHT22;1015;49.756;6.994;2022-10-31T04:18:42;9.20;99.90
2022;DHT22;1015;49.756;6.994;2022-10-31T04:21:10;9.10;99.90
2022;DHT22;1015;49.756;6.994;2022-10-31T04:23:37;8.90;99.90
2022;DHT22;1015;49.756;6.994;2022-10-31T04:26:04;8.90;99.90
2022;DHT22;1015;49.756;6.994;2022-10-31T04:28:31;8.60;99.90
2022;DHT22;1015;49.756;6.994;2022-10-31T04:30:59;8.50;99.90
2022;DHT22;1015;49.756;6.994;2022-10-31T04:33:26;8.50;99.90
2022;DHT22;1015;49.756;6.994;2022-10-31T04:35:53;8.70;99.90
2022;DHT22;1015;49.756;6.994;2022-10-31T04:38:21;8.60;99.90
2022;DHT22;1015;49.756;6.994;2022-10-31T04:40:48;8.50;99.90
2022;DHT22;1015;49.756;6.994;2022-10-31T04:43:15;8.20;99.90
2022;DHT22;1015;49.756;6.994;2022-10-31T04:45:42;8.10;99.90
2022;DHT22;1015;49.756;6.994;2022-10-31T04:48:09;8.50;99.90
2022;DHT22;1015;49.756;6.994;2022-10-31T04:50:36;8.60;99.90
2022;DHT22;1015;49.756;6.994;2022-10-31T04:53:03;9.00;99.90
2022;DHT22;1015;49.756;6.994;2022-10-31T04:55:31;8.90;99.90
2022;DHT22;1015;49.756;6.994;2022-10-31T04:57:58;8.90;99.90
2022;DHT22;1015;49.756;6.994;2022-10-31T05:00:25;8.80;99.90
2022;DHT22;1015;49.756;6.994;2022-10-31T05:02:54;8.50;99.90
2022;DHT22;1015;49.756;6.994;2022-10-31T05:05:23;8.30;99.90
2022;DHT22;1015;49.756;6.994;2022-10-31T05:07:51;8.20;99.90
2022;DHT22;1015;49.756;6.994;2022-10-31T05:10:20;8.10;99.90
2022;DHT22;1015;49.756;6.994;2022-10-31T05:12:50;8.20;99.90
2022;DHT22;1015;49.756;6.994;2022-10-31T05:15:21;8.10;99.90
2022;DHT22;1015;49.756;6.994;2022-10-31T05:17:48;8.10;99.90
2022;DHT22;1015;49.756;6.994;2022-10-31T05:20:17;8.00;99.90
2022;DHT22;1015;49.756;6.994;2022-10-31T05:22:47;8.10;99.90
2022;DHT22;1015;49.756;6.994;2022-10-31T05:25:15;8.20;99.90
2022;DHT22;1015;49.756;6.994;2022-10-31T05:27:44;7.90;99.90
2022;DHT22;1015;49.756;6.994;2022-10-31T05:30:15;8.10;99.90
2022;DHT22;1015;49.756;6.994;2022-10-31T05:32:43;8.00;99.90
2022;DHT22;1015;49.756;6.994;2022-10-31T05:35:12;8.00;99.90
2022;DHT22;1015;49.756;6.994;2022-10-31T05:37:40;8.20;99.90
2022;DHT22;1015;49.756;6.994;2022-10-31T05:40:08;7.90;99.90
2022;DHT22;1015;49.756;6.994;2022-10-31T05:42:38;7.90;99.90
2022;DHT22;1015;49.756;6.994;2022-10-31T05:45:06;8.00;99.90
2022;DHT22;1015;49.756;6.994;2022-10-31T05:47:35;8.00;99.90
2022;DHT22;1015;49.756;6.994;2022-10-31T05:50:02;8.20;99.90
2022;DHT22;1015;49.756;6.994;2022-10-31T05:52:29;8.10;99.90
2022;DHT22;1015;49.756;6.994;2022-10-31T05:54:56;8.40;99.90
2022;DHT22;1015;49.756;6.994;2022-10-31T05:57:23;8.40;99.90
2022;DHT22;1015;49.756;6.994;2022-10-31T05:59:50;8.30;99.90
2022;DHT22;1015;49.756;6.994;2022-10-31T06:02:18;8.40;99.90
2022;DHT22;1015;49.756;6.994;2022-10-31T06:04:46;8.40;99.90
2022;DHT22;1015;49.756;6.994;2022-10-31T06:07:13;8.50;99.90
2022;DHT22;1015;49.756;6.994;2022-10-31T06:09:40;8.70;99.90
2022;DHT22;1015;49.756;6.994;2022-10-31T06:12:07;8.90;99.90
2022;DHT22;1015;49.756;6.994;2022-10-31T06:14:34;8.80;99.90
2022;DHT22;1015;49.756;6.994;2022-10-31T06:17:01;8.80;99.90
2022;DHT22;1015;49.756;6.994;2022-10-31T06:19:28;8.70;99.90
2022;DHT22;1015;49.756;6.994;2022-10-31T06:21:57;8.70;99.90
2022;DHT22;1015;49.756;6.994;2022-10-31T06:24:24;8.90;99.90
2022;DHT22;1015;49.756;6.994;2022-10-31T06:26:51;8.80;99.90
2022;DHT22;1015;49.756;6.994;2022-10-31T06:29:18;9.00;99.90
2022;DHT22;1015;49.756;6.994;2022-10-31T06:31:44;9.10;99.90
2022;DHT22;1015;49.756;6.994;2022-10-31T06:34:11;9.10;99.90
2022;DHT22;1015;49.756;6.994;2022-10-31T06:36:38;9.60;99.90
2022;DHT22;1015;49.756;6.994;2022-10-31T06:39:07;9.80;99.90
2022;DHT22;1015;49.756;6.994;2022-10-31T06:41:34;9.80;99.90
2022;DHT22;1015;49.756;6.994;2022-10-31T06:44:02;9.70;99.90
2022;DHT22;1015;49.756;6.994;2022-10-31T06:46:29;9.90;99.90
2022;DHT22;1015;49.756;6.994;2022-10-31T06:48:56;9.70;99.90
2022;DHT22;1015;49.756;6.994;2022-10-31T06:51:23;9.50;99.90
2022;DHT22;1015;49.756;6.994;2022-10-31T06:53:50;9.30;99.90
2022;DHT22;1015;49.756;6.994;2022-10-31T06:56:18;9.30;99.90
2022;DHT22;1015;49.756;6.994;2022-10-31T06:58:45;9.30;99.90
2022;DHT22;1015;49.756;6.994;2022-10-31T07:01:12;9.30;99.90
2022;DHT22;1015;49.756;6.994;2022-10-31T07:03:39;9.50;99.90
2022;DHT22;1015;49.756;6.994;2022-10-31T07:06:06;9.60;99.90
2022;DHT22;1015;49.756;6.994;2022-10-31T07:08:33;9.80;99.90
2022;DHT22;1015;49.756;6.994;2022-10-31T07:11:00;9.80;99.90
2022;DHT22;1015;49.756;6.994;2022-10-31T07:13:30;10.00;99.90
2022;DHT22;1015;49.756;6.994;2022-10-31T07:16:00;10.10;99.90
2022;DHT22;1015;49.756;6.994;2022-10-31T07:18:27;10.20;99.90
2022;DHT22;1015;49.756;6.994;2022-10-31T07:20:54;10.30;99.90
2022;DHT22;1015;49.756;6.994;2022-10-31T07:23:21;10.50;99.90
2022;DHT22;1015;49.756;6.994;2022-10-31T07:25:48;10.60;99.90
2022;DHT22;1015;49.756;6.994;2022-10-31T07:28:20;10.80;99.90
2022;DHT22;1015;49.756;6.994;2022-10-31T07:30:51;10.90;99.90
2022;DHT22;1015;49.756;6.994;2022-10-31T07:33:18;11.30;99.90
2022;DHT22;1015;49.756;6.994;2022-10-31T07:35:45;11.40;99.90
2022;DHT22;1015;49.756;6.994;2022-10-31T07:38:13;11.60;99.90
2022;DHT22;1015;49.756;6.994;2022-10-31T07:40:41;11.80;99.90
2022;DHT22;1015;49.756;6.994;2022-10-31T07:43:08;11.90;99.90
2022;DHT22;1015;49.756;6.994;2022-10-31T07:45:37;11.80;99.90
2022;DHT22;1015;49.756;6.994;2022-10-31T07:48:05;11.60;99.90
2022;DHT22;1015;49.756;6.994;2022-10-31T07:50:33;11.60;99.90
2022;DHT22;1015;49.756;6.994;2022-10-31T07:53:01;11.60;99.90
2022;DHT22;1015;49.756;6.994;2022-10-31T07:55:29;11.60;99.90
2022;DHT22;1015;49.756;6.994;2022-10-31T07:57:58;11.70;99.90
2022;DHT22;1015;49.756;6.994;2022-10-31T08:00:26;11.80;99.90
2022;DHT22;1015;49.756;6.994;2022-10-31T08:03:00;11.80;99.90
2022;DHT22;1015;49.756;6.994;2022-10-31T08:05:28;11.80;99.90
2022;DHT22;1015;49.756;6.994;2022-10-31T08:07:56;11.90;99.90
2022;DHT22;1015;49.756;6.994;2022-10-31T08:10:25;12.00;99.90
2022;DHT22;1015;49.756;6.994;2022-10-31T08:12:56;12.20;99.90
2022;DHT22;1015;49.756;6.994;2022-10-31T08:15:24;12.40;99.90
2022;DHT22;1015;49.756;6.994;2022-10-31T08:17:51;12.60;99.90
2022;DHT22;1015;49.756;6.994;2022-10-31T08:20:18;12.80;99.90
2022;DHT22;1015;49.756;6.994;2022-10-31T08:22:54;12.80;99.90
2022;DHT22;1015;49.756;6.994;2022-10-31T08:25:22;12.80;99.90
2022;DHT22;1015;49.756;6.994;2022-10-31T08:27:50;12.80;99.90
2022;DHT22;1015;49.756;6.994;2022-10-31T08:30:18;12.80;99.90
2022;DHT22;1015;49.756;6.994;2022-10-31T08:32:45;12.90;99.90
2022;DHT22;1015;49.756;6.994;2022-10-31T08:35:12;13.00;99.90
2022;DHT22;1015;49.756;6.994;2022-10-31T08:37:39;13.10;99.90
2022;DHT22;1015;49.756;6.994;2022-10-31T08:40:09;13.10;99.90
2022;DHT22;1015;49.756;6.994;2022-10-31T08:42:36;13.10;99.90
2022;DHT22;1015;49.756;6.994;2022-10-31T08:45:04;13.20;99.90
2022;DHT22;1015;49.756;6.994;2022-10-31T08:47:31;13.30;99.90
2022;DHT22;1015;49.756;6.994;2022-10-31T08:49:58;13.40;99.90
2022;DHT22;1015;49.756;6.994;2022-10-31T08:52:25;13.60;99.90
2022;DHT22;1015;49.756;6.994;2022-10-31T08:54:52;13.80;99.90
2022;DHT22;1015;49.756;6.994;2022-10-31T08:57:20;14.00;99.90
2022;DHT22;1015;49.756;6.994;2022-10-31T08:59:47;14.20;99.90
2022;DHT22;1015;49.756;6.994;2022-10-31T09:02:14;14.40;99.90
2022;DHT22;1015;49.756;6.994;2022-10-31T09:04:41;14.60;99.90
2022;DHT22;1015;49.756;6.994;2022-10-31T09:07:08;14.80;99.90
2022;DHT22;1015;49.756;6.994;2022-10-31T09:09:35;15.00;99.90
2022;DHT22;1015;49.756;6.994;2022-10-31T09:12:02;15.10;99.90
2022;DHT22;1015;49.756;6.994;2022-10-31T09:14:31;15.20;99.90
2022;DHT22;1015;49.756;6.994;2022-10-31T09:16:57;15.30;99.90
2022;DHT22;1015;49.756;6.994;2022-10-31T09:19:24;15.50;99.90
2022;DHT22;1015;49.756;6.994;2022-10-31T09:21:52;15.60;99.90
2022;DHT22;1015;49.756;6.994;2022-10-31T09:24:20;15.80;99.90
2022;DHT22;1015;49.756;6.994;2022-10-31T09:26:47;15.90;99.90
2022;DHT22;1015;49.756;6.994;2022-10-31T09:29:14;16.00;99.90
2022;DHT22;1015;49.756;6.994;2022-10-31T09:31:42;16.20;99.90
2022;DHT22;1015;49.756;6.994;2022-10-31T09:34:09;16.30;99.90
2022;DHT22;1015;49.756;6.994;2022-10-31T09:36:37;16.40;99.90
2022;DHT22;1015;49.756;6.994;2022-10-31T09:39:04;16.40;99.90
2022;DHT22;1015;49.756;6.994;2022-10-31T09:41:51;16.30;99.90
2022;DHT22;1015;49.756;6.994;2022-10-31T09:44:26;16.20;99.90
2022;DHT22;1015;49.756;6.994;2022-10-31T09:47:03;16.20;99.90
2022;DHT22;1015;49.756;6.994;2022-10-31T09:49:45;16.30;99.90
2022;DHT22;1015;49.756;6.994;2022-10-31T09:52:20;16.50;99.90
2022;DHT22;1015;49.756;6.994;2022-10-31T09:54:52;16.70;99.90
2022;DHT22;1015;49.756;6.994;2022-10-31T09:57:24;16.60;99.90
2022;DHT22;1015;49.756;6.994;2022-10-31T09:59:52;16.80;99.90
2022;DHT22;1015;49.756;6.994;2022-10-31T10:02:24;16.80;99.90
2022;DHT22;1015;49.756;6.994;2022-10-31T10:04:56;16.80;99.90
2022;DHT22;1015;49.756;6.994;2022-10-31T10:07:30;16.90;99.90
2022;DHT22;1015;49.756;6.994;2022-10-31T10:10:00;16.90;99.90
2022;DHT22;1015;49.756;6.994;2022-10-31T10:12:40;17.00;99.90
2022;DHT22;1015;49.756;6.994;2022-10-31T10:15:34;17.10;99.90
2022;DHT22;1015;49.756;6.994;2022-10-31T10:18:14;17.20;99.90
2022;DHT22;1015;49.756;6.994;2022-10-31T10:20:55;17.10;99.90
2022;DHT22;1015;49.756;6.994;2022-10-31T10:23:37;17.10;99.90
2022;DHT22;1015;49.756;6.994;2022-10-31T10:26:15;17.10;99.90
2022;DHT22;1015;49.756;6.994;2022-10-31T10:28:45;17.20;99.90
2022;DHT22;1015;49.756;6.994;2022-10-31T10:31:16;17.20;99.90
2022;DHT22;1015;49.756;6.994;2022-10-31T10:33:50;17.20;99.90
2022;DHT22;1015;49.756;6.994;2022-10-31T10:36:25;17.40;99.90
2022;DHT22;1015;49.756;6.994;2022-10-31T10:38:58;17.50;99.90
2022;DHT22;1015;49.756;6.994;2022-10-31T10:41:29;17.40;99.90
2022;DHT22;1015;49.756;6.994;2022-10-31T10:43:57;17.50;99.90
2022;DHT22;1015;49.756;6.994;2022-10-31T10:46:27;17.50;99.90
2022;DHT22;1015;49.756;6.994;2022-10-31T10:49:19;17.60;99.90
2022;DHT22;1015;49.756;6.994;2022-10-31T10:51:54;17.60;99.90
2022;DHT22;1015;49.756;6.994;2022-10-31T10:54:43;17.70;99.90
2022;DHT22;1015;49.756;6.994;2022-10-31T10:57:22;17.70;99.90
2022;DHT22;1015;49.756;6.994;2022-10-31T10:59:50;17.60;99.90
2022;DHT22;1015;49.756;6.994;2022-10-31T11:02:19;17.60;99.90
2022;DHT22;1015;49.756;6.994;2022-10-31T11:04:50;17.60;99.90
2022;DHT22;1015;49.756;6.994;2022-10-31T11:07:18;17.60;99.90
2022;DHT22;1015;49.756;6.994;2022-10-31T11:09:45;17.60;99.90
2022;DHT22;1015;49.756;6.994;2022-10-31T11:12:20;17.60;99.90
2022;DHT22;1015;49.756;6.994;2022-10-31T11:14:50;17.50;99.90
2022;DHT22;1015;49.756;6.994;2022-10-31T11:17:25;17.50;99.90
2022;DHT22;1015;49.756;6.994;2022-10-31T11:20:24;17.80;99.90
2022;DHT22;1015;49.756;6.994;2022-10-31T11:23:02;17.90;99.90
2022;DHT22;1015;49.756;6.994;2022-10-31T11:25:30;18.10;99.90
2022;DHT22;1015;49.756;6.994;2022-10-31T11:28:01;18.30;99.90
2022;DHT22;1015;49.756;6.994;2022-10-31T11:30:29;18.40;99.90
2022;DHT22;1015;49.756;6.994;2022-10-31T11:32:56;18.60;99.90
2022;DHT22;1015;49.756;6.994;2022-10-31T11:35:25;18.70;99.90
2022;DHT22;1015;49.756;6.994;2022-10-31T11:37:53;18.80;99.90
2022;DHT22;1015;49.756;6.994;2022-10-31T11:40:26;19.10;99.90
2022;DHT22;1015;49.756;6.994;2022-10-31T11:42:56;19.30;99.90
2022;DHT22;1015;49.756;6.994;2022-10-31T11:45:30;19.40;99.90
2022;DHT22;1015;49.756;6.994;2022-10-31T11:47:59;19.30;99.90
2022;DHT22;1015;49.756;6.994;2022-10-31T11:50:35;19.20;99.90
2022;DHT22;1015;49.756;6.994;2022-10-31T11:53:10;19.30;99.90
2022;DHT22;1015;49.756;6.994;2022-10-31T11:55:39;19.40;99.90
2022;DHT22;1015;49.756;6.994;2022-10-31T11:58:20;19.40;99.90
2022;DHT22;1015;49.756;6.994;2022-10-31T12:00:49;19.50;99.90
2022;DHT22;1015;49.756;6.994;2022-10-31T12:03:30;19.40;99.90
2022;DHT22;1015;49.756;6.994;2022-10-31T12:06:02;19.20;99.90
2022;DHT22;1015;49.756;6.994;2022-10-31T12:08:31;19.00;99.90
2022;DHT22;1015;49.756;6.994;2022-10-31T12:11:05;19.10;99.90
2022;DHT22;1015;49.756;6.994;2022-10-31T12:14:04;19.40;99.90
2022;DHT22;1015;49.756;6.994;2022-10-31T12:16:38;19.20;99.90
2022;DHT22;1015;49.756;6.994;2022-10-31T12:19:16;19.00;99.90
2022;DHT22;1015;49.756;6.994;2022-10-31T12:22:03;19.00;99.90
2022;DHT22;1015;49.756;6.994;2022-10-31T12:24:42;19.00;99.90
2022;DHT22;1015;49.756;6.994;2022-10-31T12:27:21;19.10;99.90
2022;DHT22;1015;49.756;6.994;2022-10-31T12:30:02;18.80;99.90
2022;DHT22;1015;49.756;6.994;2022-10-31T12:32:40;18.60;99.90
2022;DHT22;1015;49.756;6.994;2022-10-31T12:35:39;18.70;99.90
2022;DHT22;1015;49.756;6.994;2022-10-31T12:38:23;18.70;99.90
2022;DHT22;1015;49.756;6.994;2022-10-31T12:41:13;18.70;99.90
2022;DHT22;1015;49.756;6.994;2022-10-31T12:43:46;18.80;99.90
2022;DHT22;1015;49.756;6.994;2022-10-31T12:46:23;19.00;99.90
2022;DHT22;1015;49.756;6.994;2022-10-31T12:51:53;19.00;99.90
2022;DHT22;1015;49.756;6.994;2022-10-31T12:54:47;18.90;99.90
2022;DHT22;1015;49.756;6.994;2022-10-31T12:57:23;18.70;99.90
2022;DHT22;1015;49.756;6.994;2022-10-31T12:59:57;18.70;99.90
2022;DHT22;1015;49.756;6.994;2022-10-31T13:02:29;18.50;99.90
2022;DHT22;1015;49.756;6.994;2022-10-31T13:05:01;18.60;99.90
2022;DHT22;1015;49.756;6.994;2022-10-31T13:07:34;18.60;99.90
2022;DHT22;1015;49.756;6.994;2022-10-31T13:10:08;18.30;99.90
2022;DHT22;1015;49.756;6.994;2022-10-31T13:12:41;18.40;99.90
2022;DHT22;1015;49.756;6.994;2022-10-31T13:15:14;18.40;99.90
2022;DHT22;1015;49.756;6.994;2022-10-31T13:17:46;18.50;99.90
2022;DHT22;1015;49.756;6.994;2022-10-31T13:20:25;18.40;99.90
2022;DHT22;1015;49.756;6.994;2022-10-31T13:22:55;18.30;99.90
2022;DHT22;1015;49.756;6.994;2022-10-31T13:25:28;18.40;99.90
2022;DHT22;1015;49.756;6.994;2022-10-31T13:27:58;18.40;99.90
2022;DHT22;1015;49.756;6.994;2022-10-31T13:30:28;18.40;99.90
2022;DHT22;1015;49.756;6.994;2022-10-31T13:33:01;18.50;99.90
2022;DHT22;1015;49.756;6.994;2022-10-31T13:35:36;18.40;99.90
2022;DHT22;1015;49.756;6.994;2022-10-31T13:38:18;18.60;99.90
2022;DHT22;1015;49.756;6.994;2022-10-31T13:40:55;18.60;99.90
2022;DHT22;1015;49.756;6.994;2022-10-31T13:43:29;18.70;99.90
2022;DHT22;1015;49.756;6.994;2022-10-31T13:45:58;19.00;99.90
2022;DHT22;1015;49.756;6.994;2022-10-31T13:48:37;19.30;99.90
2022;DHT22;1015;49.756;6.994;2022-10-31T13:51:08;19.40;99.90
2022;DHT22;1015;49.756;6.994;2022-10-31T13:53:38;19.30;99.90
2022;DHT22;1015;49.756;6.994;2022-10-31T13:56:18;19.20;99.90
2022;DHT22;1015;49.756;6.994;2022-10-31T13:59:10;18.90;99.90
2022;DHT22;1015;49.756;6.994;2022-10-31T14:01:47;19.00;99.90
2022;DHT22;1015;49.756;6.994;2022-10-31T14:04:16;18.80;99.90
2022;DHT22;1015;49.756;6.994;2022-10-31T14:06:50;18.60;99.90
2022;DHT22;1015;49.756;6.994;2022-10-31T14:09:25;18.40;99.90
2022;DHT22;1015;49.756;6.994;2022-10-31T14:11:55;18.20;99.90
2022;DHT22;1015;49.756;6.994;2022-10-31T14:14:31;18.10;99.90
2022;DHT22;1015;49.756;6.994;2022-10-31T14:16:59;17.90;99.90
2022;DHT22;1015;49.756;6.994;2022-10-31T14:19:26;17.80;99.90
2022;DHT22;1015;49.756;6.994;2022-10-31T14:21:54;17.70;99.90
2022;DHT22;1015;49.756;6.994;2022-10-31T14:24:35;17.70;99.90
2022;DHT22;1015;49.756;6.994;2022-10-31T14:29:47;18.00;99.90
2022;DHT22;1015;49.756;6.994;2022-10-31T14:32:20;17.90;99.90
2022;DHT22;1015;49.756;6.994;2022-10-31T14:34:53;17.90;99.90
2022;DHT22;1015;49.756;6.994;2022-10-31T14:37:39;17.90;99.90
2022;DHT22;1015;49.756;6.994;2022-10-31T14:40:24;17.90;99.90
2022;DHT22;1015;49.756;6.994;2022-10-31T14:43:23;17.70;99.90
2022;DHT22;1015;49.756;6.994;2022-10-31T14:45:59;17.70;99.90
2022;DHT22;1015;49.756;6.994;2022-10-31T14:48:43;17.80;99.90
2022;DHT22;1015;49.756;6.994;2022-10-31T14:51:16;17.60;99.90
2022;DHT22;1015;49.756;6.994;2022-10-31T14:53:48;17.50;99.90
2022;DHT22;1015;49.756;6.994;2022-10-31T14:56:20;17.50;99.90
2022;DHT22;1015;49.756;6.994;2022-10-31T14:58:49;17.60;99.90
2022;DHT22;1015;49.756;6.994;2022-10-31T15:01:22;17.60;99.90
2022;DHT22;1015;49.756;6.994;2022-10-31T15:03:50;17.50;99.90
2022;DHT22;1015;49.756;6.994;2022-10-31T15:06:21;17.50;99.90
2022;DHT22;1015;49.756;6.994;2022-10-31T15:08:50;17.50;99.90
2022;DHT22;1015;49.756;6.994;2022-10-31T15:11:19;17.50;99.90
2022;DHT22;1015;49.756;6.994;2022-10-31T15:13:49;17.50;99.90
2022;DHT22;1015;49.756;6.994;2022-10-31T15:16:19;17.50;99.90
2022;DHT22;1015;49.756;6.994;2022-10-31T15:18:53;17.50;99.90
2022;DHT22;1015;49.756;6.994;2022-10-31T15:21:22;17.40;99.90
2022;DHT22;1015;49.756;6.994;2022-10-31T15:23:51;17.40;99.90
2022;DHT22;1015;49.756;6.994;2022-10-31T15:26:22;17.20;99.90
2022;DHT22;1015;49.756;6.994;2022-10-31T15:29:02;16.80;99.90
2022;DHT22;1015;49.756;6.994;2022-10-31T15:31:30;16.50;99.90
2022;DHT22;1015;49.756;6.994;2022-10-31T15:34:00;16.10;99.90
2022;DHT22;1015;49.756;6.994;2022-10-31T15:36:29;16.10;99.90
2022;DHT22;1015;49.756;6.994;2022-10-31T15:38:57;16.00;99.90
2022;DHT22;1015;49.756;6.994;2022-10-31T15:41:30;16.00;99.90
2022;DHT22;1015;49.756;6.994;2022-10-31T15:44:03;15.90;99.90
2022;DHT22;1015;49.756;6.994;2022-10-31T15:46:31;15.70;99.90
2022;DHT22;1015;49.756;6.994;2022-10-31T15:49:00;15.70;99.90
2022;DHT22;1015;49.756;6.994;2022-10-31T15:51:28;15.40;99.90
2022;DHT22;1015;49.756;6.994;2022-10-31T15:53:56;15.20;99.90
2022;DHT22;1015;49.756;6.994;2022-10-31T15:56:25;14.70;99.90
2022;DHT22;1015;49.756;6.994;2022-10-31T15:58:57;14.00;99.90
2022;DHT22;1015;49.756;6.994;2022-10-31T16:01:27;13.80;99.90
2022;DHT22;1015;49.756;6.994;2022-10-31T16:03:58;14.00;99.90
2022;DHT22;1015;49.756;6.994;2022-10-31T16:06:26;14.10;99.90
2022;DHT22;1015;49.756;6.994;2022-10-31T16:08:54;14.30;99.90
2022;DHT22;1015;49.756;6.994;2022-10-31T16:11:24;13.80;99.90
2022;DHT22;1015;49.756;6.994;2022-10-31T16:13:57;13.50;99.90
2022;DHT22;1015;49.756;6.994;2022-10-31T16:16:27;13.80;99.90
2022;DHT22;1015;49.756;6.994;2022-10-31T16:18:55;14.10;99.90
2022;DHT22;1015;49.756;6.994;2022-10-31T16:21:25;14.10;99.90
2022;DHT22;1015;49.756;6.994;2022-10-31T16:23:59;14.50;99.90
2022;DHT22;1015;49.756;6.994;2022-10-31T16:26:27;14.40;99.90
2022;DHT22;1015;49.756;6.994;2022-10-31T16:28:56;13.60;99.90
2022;DHT22;1015;49.756;6.994;2022-10-31T16:31:30;13.70;99.90
2022;DHT22;1015;49.756;6.994;2022-10-31T16:34:13;13.60;99.90
2022;DHT22;1015;49.756;6.994;2022-10-31T16:36:41;13.60;99.90
2022;DHT22;1015;49.756;6.994;2022-10-31T16:39:09;13.40;99.90